This demonstration page uses our WeatherBlox Daily Observations layout. Learn more.

36.17497, -115.13722

Hourly Observations for June 25, 2015

Temp ( °F °C ) Dew Point ( °F °C ) Humidity (%) Winds ( mph kmh ) Pressure ( in mb ) Visibility ( mi km ) Precip ( " mm )
12:53 am 00:53 Clear 87 30.6 27 -2.8 11 11 Calm 29.81 1010 10 16.0934 0 0
1:53 am 01:53 Clear 84 28.9 31 -0.6 15 15 NNE 5 7 29.82 1010 10 16.0934 0 0
2:53 am 02:53 Clear 82 27.8 33 0.6 17 17 NW 5 7 29.83 1010 10 16.0934 0 0
3:53 am 03:53 Clear 81 27.2 29 -1.7 15 15 N 7 11 29.83 1010 10 16.0934 0 0
4:53 am 04:53 Clear 78 25.6 28 -2.2 16 16 NW 5 7 29.85 1011 10 16.0934 0 0
5:53 am 05:53 Sunny 78 25.6 30 -1.1 17 17 WNW 6 9 29.88 1012 10 16.0934 0 0
6:53 am 06:53 Sunny 83 28.3 32 0 16 16 WNW 5 7 29.89 1012 10 16.0934 0 0
7:53 am 07:53 Sunny 88 31.1 31 -0.6 13 13 N 7 11 29.9 1013 10 16.0934 0 0
8:53 am 08:53 Sunny 92 33.3 29 -1.7 10 10 NE 3 6 29.91 1013 10 16.0934 0 0
9:53 am 09:53 Sunny 96 35.6 29 -1.7 9 9 E 3 6 29.91 1013 10 16.0934 0 0
10:53 am 10:53 Sunny 99 37.2 29 -1.7 8 8 SSE 7 11 29.91 1013 10 16.0934 0 0
11:53 am 11:53 Sunny 102 38.9 28 -2.2 7 7 SSE 7 11 29.9 1012 10 16.0934 0 0
12:53 pm 12:53 Sunny 105 40.6 31 -0.6 7 7 VRB 5 7 29.88 1012 10 16.0934 0 0
1:53 pm 13:53 Sunny 107 41.7 34 1.1 8 8 SSW 14 22 29.86 1011 10 16.0934 0 0
2:53 pm 14:53 Sunny 109 42.8 31 -0.6 7 7 SW 15 24 29.84 1010 10 16.0934 0 0
3:53 pm 15:53 Sunny 109 42.8 33 0.6 7 7 SSW 13 20 29.82 1010 10 16.0934 0 0
4:53 pm 16:53 Sunny 106 41.1 33 0.6 8 8 SSW 6 9 29.81 1010 10 16.0934 0 0
5:53 pm 17:53 Sunny 106 41.1 33 0.6 8 8 ESE 5 7 29.8 1009 10 16.0934 0 0
6:53 pm 18:53 Sunny 107 41.7 34 1.1 8 8 SW 12 19 29.79 1009 10 16.0934 0 0
7:53 pm 19:53 Sunny 105 40.6 32 0 8 8 W 8 13 29.78 1009 10 16.0934 0 0
8:53 pm 20:53 Clear 102 38.9 32 0 9 9 SSE 6 9 29.79 1009 10 16.0934 0 0
9:53 pm 21:53 Clear 102 38.9 31 -0.6 8 8 WSW 7 11 29.8 1009 10 16.0934 0 0
10:53 pm 22:53 Clear 97 36.1 38 3.3 13 13 NNW 8 13 29.81 1010 10 16.0934 0 0
11:53 pm 23:53 Clear 98 36.7 30 -1.1 9 9 NW 13 20 29.8 1009 10 16.0934 0 0

Powered by AerisWeather